createdAt,value
2019-04-10T00:02:25.846Z,92664.07
2019-04-10T00:04:59.489Z,92664.70
2019-04-10T00:07:33.228Z,92666.10
2019-04-10T00:10:07.657Z,92664.09
2019-04-10T00:12:40.797Z,92662.76
2019-04-10T00:15:16.112Z,92661.25
2019-04-10T00:17:49.361Z,92664.64
2019-04-10T00:20:22.554Z,92659.16
2019-04-10T00:22:55.491Z,92666.56
2019-04-10T00:25:28.594Z,92666.89
2019-04-10T00:28:01.869Z,92666.70
2019-04-10T00:30:35.383Z,92664.70
2019-04-10T00:33:08.977Z,92663.70
2019-04-10T00:35:42.069Z,92656.05
2019-04-10T00:38:15.668Z,92660.49
2019-04-10T00:40:49.876Z,92658.22
2019-04-10T00:43:23.049Z,92664.70
2019-04-10T00:45:56.017Z,92652.67
2019-04-10T00:48:29.988Z,92651.88
2019-04-10T00:51:03.408Z,92656.06
2019-04-10T00:53:37.148Z,92652.45
2019-04-10T00:56:10.848Z,92647.45
2019-04-10T00:58:43.789Z,92651.81
2019-04-10T01:01:17.289Z,92648.09
2019-04-10T01:03:51.259Z,92647.23
2019-04-10T01:06:26.126Z,92644.95
2019-04-10T01:08:59.537Z,92643.13
2019-04-10T01:11:32.838Z,92638.02
2019-04-10T01:14:06.210Z,92642.37
2019-04-10T01:16:39.778Z,92640.39
2019-04-10T01:19:12.948Z,92642.52
2019-04-10T01:21:46.450Z,92639.27
2019-04-10T01:24:19.645Z,92631.08
2019-04-10T01:26:52.522Z,92628.75
2019-04-10T01:29:27.058Z,92627.77
2019-04-10T01:32:01.619Z,92623.21
2019-04-10T01:34:37.940Z,92615.60
2019-04-10T01:37:12.390Z,92621.28
2019-04-10T01:39:46.461Z,92616.28
2019-04-10T01:42:20.675Z,92616.66
2019-04-10T01:44:55.249Z,92608.10
2019-04-10T01:47:28.978Z,92612.11
2019-04-10T01:50:02.388Z,92608.15
2019-04-10T01:52:35.439Z,92610.85
2019-04-10T01:55:17.275Z,92609.17
2019-04-10T01:57:42.968Z,92611.73
2019-04-10T02:00:23.672Z,92606.42
2019-04-10T02:02:57.959Z,92602.24
2019-04-10T02:05:31.117Z,92604.92
2019-04-10T02:08:09.574Z,92601.20
2019-04-10T02:10:38.676Z,92605.06
2019-04-10T02:13:11.769Z,92599.75
2019-04-10T02:15:46.012Z,92601.17
2019-04-10T02:18:19.371Z,92597.00
2019-04-10T02:20:53.631Z,92596.03
2019-04-10T02:23:28.146Z,92599.53
2019-04-10T02:26:01.230Z,92594.34
2019-04-10T02:28:36.039Z,92597.10
2019-04-10T02:31:10.120Z,92599.46
2019-04-10T02:33:43.396Z,92589.45
2019-04-10T02:36:17.360Z,92596.79
2019-04-10T02:39:01.935Z,92590.75
2019-04-10T02:41:25.551Z,92603.13
2019-04-10T02:44:02.350Z,92601.60
2019-04-10T02:46:33.713Z,92605.43
2019-04-10T02:49:08.050Z,92604.81
2019-04-10T02:51:41.887Z,92604.95
2019-04-10T02:54:17.446Z,92598.85
2019-04-10T02:56:50.580Z,92602.05
2019-04-10T02:59:23.950Z,92600.15
2019-04-10T03:01:57.981Z,92602.92
2019-04-10T03:04:32.948Z,92598.55
2019-04-10T03:07:07.368Z,92603.30
2019-04-10T03:09:54.865Z,92604.39
2019-04-10T03:12:16.629Z,92605.97
2019-04-10T03:14:52.033Z,92597.75
2019-04-10T03:17:24.729Z,92606.71
2019-04-10T03:19:58.102Z,92606.83
2019-04-10T03:22:32.532Z,92612.40
2019-04-10T03:25:05.629Z,92614.72
2019-04-10T03:27:38.745Z,92611.16
2019-04-10T03:30:13.294Z,92612.89
2019-04-10T03:33:02.930Z,92616.39
2019-04-10T03:35:34.544Z,92614.25
2019-04-10T03:38:07.969Z,92608.46
2019-04-10T03:40:41.747Z,92610.70
2019-04-10T03:43:15.069Z,92609.72
2019-04-10T03:45:48.639Z,92606.68
2019-04-10T03:48:22.969Z,92603.75
2019-04-10T03:50:57.284Z,92611.75
2019-04-10T03:53:31.970Z,92611.90
2019-04-10T03:56:05.376Z,92612.64
2019-04-10T03:58:39.602Z,92612.07
2019-04-10T04:01:12.985Z,92609.50
2019-04-10T04:03:45.849Z,92603.97
2019-04-10T04:06:19.558Z,92609.22
2019-04-10T04:09:04.288Z,92604.97
2019-04-10T04:11:27.159Z,92612.22
2019-04-10T04:13:59.962Z,92606.96
2019-04-10T04:16:33.261Z,92607.28
2019-04-10T04:19:06.354Z,92603.23
2019-04-10T04:21:39.711Z,92604.88
2019-04-10T04:24:13.010Z,92607.11
2019-04-10T04:26:46.525Z,92604.91
2019-04-10T04:29:22.581Z,92608.14
2019-04-10T04:31:54.709Z,92605.47
2019-04-10T04:34:29.170Z,92609.11
2019-04-10T04:37:02.509Z,92609.55
2019-04-10T04:39:37.260Z,92616.05
2019-04-10T04:42:10.457Z,92616.66
2019-04-10T04:44:43.776Z,92620.57
2019-04-10T04:47:16.590Z,92626.13
2019-04-10T04:49:50.271Z,92623.41
2019-04-10T04:52:23.938Z,92628.59
2019-04-10T04:54:57.320Z,92629.03
2019-04-10T04:57:31.254Z,92626.83
2019-04-10T05:00:06.324Z,92636.65
2019-04-10T05:02:40.424Z,92639.59
2019-04-10T05:05:14.260Z,92641.55
2019-04-10T05:07:56.345Z,92638.28
2019-04-10T05:10:22.936Z,92641.70
2019-04-10T05:12:56.413Z,92642.72
2019-04-10T05:15:29.675Z,92638.95
2019-04-10T05:18:02.578Z,92648.84
2019-04-10T05:20:44.216Z,92639.95
2019-04-10T05:23:10.357Z,92638.26
2019-04-10T05:25:43.413Z,92645.87
2019-04-10T05:28:16.733Z,92650.12
2019-04-10T05:30:50.642Z,92650.78
2019-04-10T05:33:24.722Z,92648.27
2019-04-10T05:35:59.201Z,92649.52
2019-04-10T05:38:33.379Z,92651.73
2019-04-10T05:41:07.024Z,92656.53
2019-04-10T05:43:40.507Z,92664.60
2019-04-10T05:46:14.414Z,92660.20
2019-04-10T05:48:49.041Z,92657.51
2019-04-10T05:51:23.343Z,92664.28
2019-04-10T05:53:57.966Z,92661.96
2019-04-10T05:56:31.233Z,92665.61
2019-04-10T05:59:05.197Z,92668.39
2019-04-10T06:01:41.189Z,92665.71
2019-04-10T06:04:13.366Z,92664.72
2019-04-10T06:06:48.391Z,92666.03
2019-04-10T06:09:22.667Z,92665.58
2019-04-10T06:11:57.300Z,92668.29
2019-04-10T06:14:30.462Z,92669.75
2019-04-10T06:17:04.279Z,92676.11
2019-04-10T06:19:38.400Z,92677.94
2019-04-10T06:22:12.457Z,92681.79
2019-04-10T06:24:46.771Z,92686.00
2019-04-10T06:27:20.568Z,92681.86
2019-04-10T06:29:55.133Z,92692.33
2019-04-10T06:32:29.564Z,92687.58
2019-04-10T06:35:03.664Z,92690.21
2019-04-10T06:37:37.907Z,92685.10
2019-04-10T06:40:18.732Z,92686.72
2019-04-10T06:42:50.837Z,92691.97
2019-04-10T06:45:21.872Z,92695.42
2019-04-10T06:47:55.491Z,92692.75
2019-04-10T06:50:30.129Z,92696.49
2019-04-10T06:53:04.151Z,92701.08
2019-04-10T06:55:38.544Z,92705.06
2019-04-10T06:58:11.790Z,92709.41
2019-04-10T07:00:48.664Z,92710.62
2019-04-10T07:03:21.077Z,92716.27
2019-04-10T07:06:06.297Z,92724.19
2019-04-10T07:08:29.782Z,92726.77
2019-04-10T07:11:08.697Z,92728.45
2019-04-10T07:13:39.954Z,92726.92
2019-04-10T07:16:12.715Z,92722.59
2019-04-10T07:18:49.116Z,92724.63
2019-04-10T07:21:24.233Z,92724.92
2019-04-10T07:24:01.220Z,92727.55
2019-04-10T07:26:39.357Z,92725.56
2019-04-10T07:29:05.770Z,92725.52
2019-04-10T07:31:39.734Z,92722.03
2019-04-10T07:34:13.289Z,92721.22
2019-04-10T07:36:46.868Z,92726.86
2019-04-10T07:39:21.422Z,92733.72
2019-04-10T07:41:55.744Z,92734.20
2019-04-10T07:44:28.830Z,92731.74
2019-04-10T07:47:02.674Z,92736.08
2019-04-10T07:49:38.104Z,92733.95
2019-04-10T07:52:13.169Z,92733.36
2019-04-10T07:54:46.330Z,92734.59
2019-04-10T07:57:20.313Z,92730.88
2019-04-10T07:59:53.343Z,92735.24
2019-04-10T08:02:27.484Z,92732.09
2019-04-10T08:05:02.291Z,92732.12
2019-04-10T08:07:37.764Z,92730.98
2019-04-10T08:10:11.972Z,92733.72
2019-04-10T08:12:50.194Z,92732.50
2019-04-10T08:15:21.005Z,92725.14
2019-04-10T08:17:54.169Z,92731.74
2019-04-10T08:20:27.110Z,92728.67
2019-04-10T08:22:59.989Z,92734.09
2019-04-10T08:25:33.280Z,92729.50
2019-04-10T08:28:07.225Z,92731.66
2019-04-10T08:30:41.877Z,92737.28
2019-04-10T08:33:15.429Z,92734.23
2019-04-10T08:35:49.455Z,92738.36
2019-04-10T08:38:23.907Z,92737.55
2019-04-10T08:40:57.158Z,92725.72
2019-04-10T08:43:31.233Z,92730.08
2019-04-10T08:46:05.299Z,92738.56
2019-04-10T08:48:39.188Z,92737.52
2019-04-10T08:51:12.929Z,92739.23
2019-04-10T08:53:46.702Z,92737.56
2019-04-10T08:56:20.472Z,92744.92
2019-04-10T08:58:55.034Z,92750.73
2019-04-10T09:01:29.296Z,92752.81
2019-04-10T09:04:03.600Z,92753.60
2019-04-10T09:06:37.774Z,92755.75
2019-04-10T09:09:10.889Z,92758.68
2019-04-10T09:11:45.065Z,92754.13
2019-04-10T09:14:19.098Z,92755.79
2019-04-10T09:16:53.144Z,92753.35
2019-04-10T09:19:26.049Z,92760.10
2019-04-10T09:22:00.296Z,92759.56
2019-04-10T09:24:34.166Z,92759.68
2019-04-10T09:27:07.149Z,92762.69
2019-04-10T09:29:40.394Z,92756.03
2019-04-10T09:32:14.618Z,92763.02
2019-04-10T09:34:48.226Z,92763.02
2019-04-10T09:37:22.032Z,92763.47
2019-04-10T09:39:56.488Z,92764.69
2019-04-10T09:42:29.812Z,92761.55
2019-04-10T09:45:02.819Z,92763.12
2019-04-10T09:47:35.758Z,92764.00
2019-04-10T09:50:09.677Z,92764.98
2019-04-10T09:52:44.018Z,92766.43
2019-04-10T09:55:18.013Z,92772.48
2019-04-10T09:57:51.844Z,92767.72
2019-04-10T10:00:27.840Z,92764.38
2019-04-10T10:03:01.533Z,92765.28
2019-04-10T10:05:35.044Z,92761.84
2019-04-10T10:08:09.063Z,92763.45
2019-04-10T10:10:42.389Z,92764.62
2019-04-10T10:13:15.629Z,92758.32
2019-04-10T10:15:49.461Z,92754.56
2019-04-10T10:18:25.527Z,92762.00
2019-04-10T10:20:59.874Z,92759.26
2019-04-10T10:23:33.907Z,92758.56
2019-04-10T10:26:07.980Z,92754.03
2019-04-10T10:28:41.134Z,92755.49
2019-04-10T10:31:14.088Z,92757.15
2019-04-10T10:33:48.033Z,92751.55
2019-04-10T10:36:22.143Z,92750.40
2019-04-10T10:39:05.287Z,92749.78
2019-04-10T10:41:31.933Z,92753.45
2019-04-10T10:44:05.108Z,92750.15
2019-04-10T10:46:38.329Z,92748.55
2019-04-10T10:49:12.553Z,92759.03
2019-04-10T10:51:46.774Z,92757.52
2019-04-10T10:54:21.118Z,92756.36
2019-04-10T10:56:55.018Z,92750.15
2019-04-10T10:59:29.283Z,92752.25
2019-04-10T11:02:02.698Z,92753.39
2019-04-10T11:04:36.130Z,92751.54
2019-04-10T11:07:09.431Z,92749.60
2019-04-10T11:09:44.443Z,92746.72
2019-04-10T11:12:17.828Z,92752.34
2019-04-10T11:14:52.194Z,92743.68
2019-04-10T11:17:25.483Z,92742.84
2019-04-10T11:19:59.492Z,92743.27
2019-04-10T11:22:33.137Z,92740.30
2019-04-10T11:25:07.949Z,92737.58
2019-04-10T11:27:42.032Z,92738.98
2019-04-10T11:30:16.130Z,92737.05
2019-04-10T11:32:50.735Z,92737.83
2019-04-10T11:35:24.329Z,92744.55
2019-04-10T11:38:00.484Z,92739.30
2019-04-10T11:40:34.129Z,92741.66
2019-04-10T11:43:07.692Z,92747.20
2019-04-10T11:45:45.612Z,92750.40
2019-04-10T11:48:18.226Z,92746.75
2019-04-10T11:50:51.044Z,92746.91
2019-04-10T11:53:27.172Z,92750.56
2019-04-10T11:56:04.645Z,92753.94
2019-04-10T11:58:43.056Z,92750.72
2019-04-10T12:01:10.489Z,92751.27
2019-04-10T12:06:20.694Z,92750.84
2019-04-10T12:11:28.892Z,92750.40
2019-04-10T12:14:02.980Z,92754.20
2019-04-10T12:16:36.884Z,92751.80
2019-04-10T12:19:11.058Z,92754.49
2019-04-10T12:21:44.491Z,92747.05
2019-04-10T12:24:18.338Z,92753.50
2019-04-10T12:26:51.926Z,92749.77
2019-04-10T12:29:25.329Z,92745.72
2019-04-10T12:31:58.677Z,92744.84
2019-04-10T12:34:32.130Z,92748.35
2019-04-10T12:37:06.926Z,92748.33
2019-04-10T12:39:41.198Z,92745.92
2019-04-10T12:42:16.177Z,92746.47
2019-04-10T12:44:49.689Z,92749.06
2019-04-10T12:47:23.837Z,92745.63
2019-04-10T12:49:58.244Z,92742.82
2019-04-10T12:52:32.384Z,92742.14
2019-04-10T12:55:05.629Z,92746.78
2019-04-10T12:57:39.129Z,92741.53
2019-04-10T13:00:13.920Z,92742.90
2019-04-10T13:02:47.001Z,92738.18
2019-04-10T13:05:20.966Z,92735.41
2019-04-10T13:07:54.470Z,92737.52
2019-04-10T13:10:27.494Z,92735.20
2019-04-10T13:13:00.428Z,92736.39
2019-04-10T13:15:35.256Z,92738.16
2019-04-10T13:18:08.649Z,92735.77
2019-04-10T13:20:42.049Z,92737.14
2019-04-10T13:23:17.465Z,92734.83
2019-04-10T13:25:58.830Z,92732.70
2019-04-10T13:28:25.550Z,92732.76
2019-04-10T13:30:59.575Z,92733.86
2019-04-10T13:33:32.935Z,92735.53
2019-04-10T13:36:07.173Z,92739.39
2019-04-10T13:38:42.180Z,92736.53
2019-04-10T13:41:16.463Z,92730.35
2019-04-10T13:43:49.929Z,92735.31
2019-04-10T13:46:22.949Z,92728.99
2019-04-10T13:48:56.068Z,92734.70
2019-04-10T13:51:29.642Z,92730.80
2019-04-10T13:54:04.005Z,92728.78
2019-04-10T13:56:37.209Z,92726.72
2019-04-10T13:59:10.957Z,92732.77
2019-04-10T14:01:44.148Z,92729.53
2019-04-10T14:04:17.108Z,92726.56
2019-04-10T14:06:51.409Z,92720.48
2019-04-10T14:09:34.919Z,92719.67
2019-04-10T14:11:59.794Z,92724.13
2019-04-10T14:14:33.148Z,92721.41
2019-04-10T14:17:06.910Z,92726.12
2019-04-10T14:19:41.515Z,92723.36
2019-04-10T14:22:16.068Z,92723.73
2019-04-10T14:24:50.564Z,92720.24
2019-04-10T14:27:28.508Z,92711.95
2019-04-10T14:30:01.629Z,92719.84
2019-04-10T14:32:39.643Z,92716.16
2019-04-10T14:35:12.808Z,92723.43
2019-04-10T14:37:45.849Z,92727.63
2019-04-10T14:40:19.947Z,92564.41
2019-04-10T14:42:55.722Z,92720.73
2019-04-10T14:45:27.994Z,92719.92
2019-04-10T14:48:01.029Z,92723.84
2019-04-10T14:50:34.229Z,92722.89
2019-04-10T14:53:07.654Z,92723.95
2019-04-10T14:55:41.823Z,92729.19
2019-04-10T14:58:26.335Z,92723.46
2019-04-10T15:00:52.742Z,92716.29
2019-04-10T15:03:26.532Z,92722.22
2019-04-10T15:06:02.288Z,92722.52
2019-04-10T15:08:35.609Z,92722.43
2019-04-10T15:11:09.244Z,92719.34
2019-04-10T15:13:42.415Z,92719.75
2019-04-10T15:16:16.706Z,92716.91
2019-04-10T15:18:50.003Z,92721.52
2019-04-10T15:21:23.090Z,92722.23
2019-04-10T15:23:57.283Z,92716.35
2019-04-10T15:26:30.549Z,92714.91
2019-04-10T15:29:03.754Z,92710.56
2019-04-10T15:31:37.289Z,92714.01
2019-04-10T15:34:10.649Z,92710.77
2019-04-10T15:36:45.957Z,92714.72
2019-04-10T15:39:25.781Z,92714.44
2019-04-10T15:41:53.048Z,92713.58
2019-04-10T15:44:26.177Z,92711.07
2019-04-10T15:47:12.618Z,92708.34
2019-04-10T15:49:34.668Z,92718.77
2019-04-10T15:52:07.989Z,92717.14
2019-04-10T15:54:40.888Z,92714.09
2019-04-10T15:57:14.264Z,92722.98
2019-04-10T15:59:48.321Z,92717.55
2019-04-10T16:02:23.681Z,92714.15
2019-04-10T16:04:57.301Z,92720.08
2019-04-10T16:07:30.879Z,92720.39
2019-04-10T16:10:23.100Z,92725.97
2019-04-10T16:12:58.018Z,92724.16
2019-04-10T16:15:32.738Z,92722.97
2019-04-10T16:18:13.574Z,92725.11
2019-04-10T16:20:48.810Z,92722.97
2019-04-10T16:23:33.439Z,92729.27
2019-04-10T16:26:07.311Z,92724.13
2019-04-10T16:28:40.189Z,92726.73
2019-04-10T16:31:13.595Z,92724.51
2019-04-10T16:33:46.570Z,92725.20
2019-04-10T16:36:19.817Z,92725.03
2019-04-10T16:38:53.729Z,92722.63
2019-04-10T16:41:29.537Z,92722.48
2019-04-10T16:44:02.531Z,92726.56
2019-04-10T16:46:36.173Z,92731.52
2019-04-10T16:49:10.600Z,92729.72
2019-04-10T16:51:44.740Z,92726.58
2019-04-10T16:54:20.069Z,92725.97
2019-04-10T16:56:53.953Z,92728.78
2019-04-10T16:59:27.889Z,92727.45
2019-04-10T17:02:01.860Z,92721.27
2019-04-10T17:04:36.111Z,92729.91
2019-04-10T17:07:10.586Z,92729.27
2019-04-10T17:09:45.729Z,92735.73
2019-04-10T17:12:19.854Z,92728.39
2019-04-10T17:14:53.400Z,92730.90
2019-04-10T17:17:26.570Z,92732.43
2019-04-10T17:20:00.603Z,92739.49
2019-04-10T17:22:42.058Z,92733.65
2019-04-10T17:25:09.641Z,92734.23
2019-04-10T17:27:43.859Z,92736.61
2019-04-10T17:30:17.810Z,92733.22
2019-04-10T17:32:54.048Z,92732.64
2019-04-10T17:35:27.770Z,92728.80
2019-04-10T17:38:00.829Z,92737.64
2019-04-10T17:40:43.386Z,92737.58
2019-04-10T17:43:10.535Z,92732.22
2019-04-10T17:45:44.833Z,92733.92
2019-04-10T17:48:18.417Z,92736.92
2019-04-10T17:50:51.317Z,92736.29
2019-04-10T17:53:25.211Z,92743.76
2019-04-10T17:56:00.072Z,92746.47
2019-04-10T17:58:33.860Z,92743.10
2019-04-10T18:01:08.449Z,92749.91
2019-04-10T18:03:50.815Z,92749.99
2019-04-10T18:06:17.347Z,92749.28
2019-04-10T18:08:51.390Z,92747.77
2019-04-10T18:11:25.268Z,92754.81
2019-04-10T18:13:58.690Z,92764.52
2019-04-10T18:16:31.928Z,92759.45
2019-04-10T18:19:04.726Z,92761.08
2019-04-10T18:21:37.930Z,92768.14
2019-04-10T18:24:12.157Z,92765.67
2019-04-10T18:26:45.112Z,92772.04
2019-04-10T18:29:18.880Z,92779.84
2019-04-10T18:31:53.525Z,92774.81
2019-04-10T18:34:26.990Z,92776.58
2019-04-10T18:37:02.428Z,92779.70
2019-04-10T18:39:34.970Z,92781.02
2019-04-10T18:42:08.018Z,92779.88
2019-04-10T18:44:41.537Z,92778.89
2019-04-10T18:47:14.649Z,92786.88
2019-04-10T18:49:47.689Z,92780.64
2019-04-10T18:52:23.482Z,92791.02
2019-04-10T18:54:56.910Z,92790.13
2019-04-10T18:57:32.755Z,92791.94
2019-04-10T19:00:10.493Z,92789.25
2019-04-10T19:02:48.787Z,92786.97
2019-04-10T19:05:23.808Z,92788.05
2019-04-10T19:07:56.756Z,92792.98
2019-04-10T19:10:30.568Z,92789.55
2019-04-10T19:13:03.843Z,92787.05
2019-04-10T19:15:37.149Z,92787.76
2019-04-10T19:18:11.509Z,92785.65
2019-04-10T19:20:45.370Z,92786.78
2019-04-10T19:23:19.421Z,92792.65
2019-04-10T19:25:53.329Z,92791.56
2019-04-10T19:28:31.678Z,92789.38
2019-04-10T19:31:11.100Z,92791.37
2019-04-10T19:33:40.137Z,92787.91
2019-04-10T19:36:12.943Z,92793.87
2019-04-10T19:38:46.053Z,92794.34
2019-04-10T19:41:25.087Z,92792.77
2019-04-10T19:43:54.830Z,92792.41
2019-04-10T19:46:29.292Z,92792.84
2019-04-10T19:49:02.770Z,92792.02
2019-04-10T19:51:37.069Z,92791.34
2019-04-10T19:54:10.983Z,92791.88
2019-04-10T19:56:44.688Z,92793.98
2019-04-10T19:59:18.777Z,92796.03
2019-04-10T20:01:52.785Z,92799.92
2019-04-10T20:04:26.294Z,92805.11
2019-04-10T20:07:00.523Z,92805.62
2019-04-10T20:09:34.663Z,92804.73
2019-04-10T20:12:08.770Z,92799.83
2019-04-10T20:14:41.753Z,92795.31
2019-04-10T20:17:15.636Z,92799.03
2019-04-10T20:19:48.912Z,92799.61
2019-04-10T20:22:23.042Z,92799.58
2019-04-10T20:24:56.879Z,92801.22
2019-04-10T20:27:30.017Z,92802.86
2019-04-10T20:30:03.710Z,92806.55
2019-04-10T20:32:38.594Z,92798.39
2019-04-10T20:35:12.308Z,92806.19
2019-04-10T20:37:45.177Z,92808.52
2019-04-10T20:40:19.545Z,92812.14
2019-04-10T20:42:54.166Z,92808.77
2019-04-10T20:45:27.697Z,92807.41
2019-04-10T20:48:02.246Z,92803.06
2019-04-10T20:50:36.282Z,92808.17
2019-04-10T20:53:10.029Z,92798.49
2019-04-10T20:55:44.052Z,92803.48
2019-04-10T20:58:19.091Z,92793.52
2019-04-10T21:00:52.529Z,92795.63
2019-04-10T21:03:25.819Z,92796.95
2019-04-10T21:05:58.924Z,92793.47
2019-04-10T21:08:32.024Z,92796.93
2019-04-10T21:11:05.617Z,92789.98
2019-04-10T21:13:39.048Z,92795.03
2019-04-10T21:16:13.305Z,92794.38
2019-04-10T21:18:46.733Z,92798.11
2019-04-10T21:21:19.628Z,92795.31
2019-04-10T21:23:52.657Z,92799.53
2019-04-10T21:26:25.637Z,92801.17
2019-04-10T21:29:00.289Z,92794.97
2019-04-10T21:31:36.328Z,92785.64
2019-04-10T21:34:26.392Z,92789.28
2019-04-10T21:36:59.777Z,92780.19
2019-04-10T21:39:33.945Z,92779.00
2019-04-10T21:42:14.843Z,92769.05
2019-04-10T21:44:42.939Z,92776.16
2019-04-10T21:47:17.213Z,92774.50
2019-04-10T21:49:50.889Z,92765.67
2019-04-10T21:52:23.749Z,92766.41
2019-04-10T21:54:59.276Z,92771.34
2019-04-10T21:57:32.021Z,92766.84
2019-04-10T22:00:05.776Z,92770.06
2019-04-10T22:02:39.984Z,92765.14
2019-04-10T22:05:14.552Z,92765.93
2019-04-10T22:07:48.114Z,92768.34
2019-04-10T22:10:32.265Z,92766.27
2019-04-10T22:13:05.868Z,92768.87
2019-04-10T22:15:42.590Z,92764.47
2019-04-10T22:18:15.028Z,92766.88
2019-04-10T22:20:48.086Z,92769.39
2019-04-10T22:23:22.361Z,92767.72
2019-04-10T22:25:57.569Z,92765.95
2019-04-10T22:28:30.969Z,92768.69
2019-04-10T22:31:03.936Z,92774.28
2019-04-10T22:33:36.957Z,92770.88
2019-04-10T22:36:10.795Z,92773.88
2019-04-10T22:38:44.468Z,92768.09
2019-04-10T22:41:26.378Z,92768.54
2019-04-10T22:43:52.827Z,92762.48
2019-04-10T22:46:27.867Z,92761.83
2019-04-10T22:49:02.014Z,92764.01
2019-04-10T22:51:35.612Z,92766.88
2019-04-10T22:54:10.121Z,92759.45
2019-04-10T22:56:43.776Z,92760.99
2019-04-10T22:59:17.791Z,92764.77
2019-04-10T23:02:00.338Z,92763.20
2019-04-10T23:04:26.466Z,92756.41
2019-04-10T23:07:01.768Z,92754.30
2019-04-10T23:09:35.989Z,92760.68
2019-04-10T23:12:09.840Z,92762.74
2019-04-10T23:14:43.196Z,92758.66
2019-04-10T23:17:16.795Z,92761.80
2019-04-10T23:19:50.123Z,92757.08
2019-04-10T23:22:23.309Z,92762.16
2019-04-10T23:24:56.568Z,92753.41
2019-04-10T23:27:30.169Z,92759.23
2019-04-10T23:30:05.129Z,92764.00
2019-04-10T23:32:37.997Z,92766.25
2019-04-10T23:35:11.604Z,92762.16
2019-04-10T23:37:46.762Z,92759.06
2019-04-10T23:40:21.018Z,92758.33
2019-04-10T23:43:04.788Z,92764.00
2019-04-10T23:45:29.456Z,92760.00
2019-04-10T23:48:03.032Z,92759.88
2019-04-10T23:50:36.599Z,92763.03
2019-04-10T23:53:09.698Z,92769.83
2019-04-10T23:55:43.230Z,92764.86
2019-04-10T23:58:16.271Z,92773.06
